Yakima, Washington
Current Conditions -  °F | °C
As of 10:53 AM on Sunday 21 Dec 2014 (Local Time) from KYKM Reporting Station
Clear Clear  
Wind Chill: 54°   Ceiling: Unl
Heat Index: 54°   Visibility: 10mi
Dew Point: 37°   Wind: 13mph
Humidity: 53%   Direction: 270°W
Pressure: 29.89"   Gusts: NA
Location:  46.6°N, 120.5°W
Report Text: KYKM 211853Z 27011KT 10SM CLR 12/03 A2989 RMK AO2 SLP125 T01220028
Loading
Personal Weather Stations






























Interactive Weather Map New forecast layout! Learn more

10-Day Weather Forecast

Advertisements
Track Severe Weather on mobile